Oluja — V7QE8 — position and weather

sailwx.info

Track history (hours):
 
Tides and Currents Weather Stations Pressure Air Temp Water Temp Dewpoint Dewpoint Depression Visibility Wind Speed Wind Dir Waves Ship Positions

Oluja

Last reported at 2018-Apr-27 02:39 UTC. Time now 2018-Apr-27 03:02 UTC.
Position N 50°19' W 001°21'.

Length 188 m; draft 8.2 m.

Type: Cargo ship. MMSI: 538003345.

Date/timePositionNaut miles runAvg speedWind from/ knotsBaromVisibWave heightAir tempDewpointWater temp
2018-Apr-27 02:39N 50°19' W 001°21'312.8
2018-Apr-27 02:23N 50°20' W 001°16'513.1
2018-Apr-27 02:00N 50°22' W 001°08'713.5
2018-Apr-27 01:30N 50°24' W 000°58'714.0
2018-Apr-27 01:01N 50°26' W 000°48'713.6
2018-Apr-27 00:30N 50°27' W 000°37'713.8
2018-Apr-27 00:00N 50°28' W 000°27'713.3
2018-Apr-26 23:30N 50°30' W 000°16'612.9
2018-Apr-26 23:00N 50°32' W 000°07'612.6
2018-Apr-26 22:30N 50°33' E 000°03'612.2
2018-Apr-26 22:00N 50°35' E 000°12'611.8
2018-Apr-26 21:30N 50°36' E 000°21'611.3
2018-Apr-26 21:00N 50°38' E 000°30'510.6
2018-Apr-26 20:30N 50°40' E 000°37'510.6
2018-Apr-26 20:00N 50°43' E 000°44'510.4
2018-Apr-26 19:30N 50°46' E 000°50'510.4
2018-Apr-26 19:00N 50°49' E 000°57'510.6
2018-Apr-26 18:30N 50°53' E 001°04'7 7.5
2018-Apr-26 17:31N 50°60' E 001°06'0 2.8
2018-Apr-26 17:31N 50°60' E 001°06'0 0.1
2018-Apr-26 16:28N 50°60' E 001°06'0 0.0
2018-Apr-26 15:52N 50°60' E 001°06'0 0.2
2018-Apr-26 15:30N 50°60' E 001°06'0 0.2
2018-Apr-26 15:00N 50°60' E 001°07'0 0.2
2018-Apr-26 14:25N 50°60' E 001°07'1 3.1
2018-Apr-26 14:00N 51°00' E 001°09'5 9.2
2018-Apr-26 13:29N 51°00' E 001°16'510.0
2018-Apr-26 13:00N 51°02' E 001°23'510.1
2018-Apr-26 12:30N 51°06' E 001°29'5 9.2
2018-Apr-26 12:00N 51°09' E 001°35'4 8.8
2018-Apr-26 11:30N 51°11' E 001°40'4 8.8
2018-Apr-26 11:00N 51°14' E 001°45'4 9.0
2018-Apr-26 10:30N 51°18' E 001°49'5 9.0
2018-Apr-26 10:00N 51°22' E 001°52'5 9.4
2018-Apr-26 09:30N 51°26' E 001°56'5 9.6
2018-Apr-26 09:00N 51°30' E 002°01'5 9.9
2018-Apr-26 08:30N 51°33' E 002°07'510.4
2018-Apr-26 08:00N 51°37' E 002°12'510.6
2018-Apr-26 07:31N 51°41' E 002°18'611.2
2018-Apr-26 07:00N 51°45' E 002°24'8011.6
2018-Apr-26 00:06N 52°58' E 003°17'210.4
2018-Apr-25 23:53N 53°00' E 003°18'410.5
2018-Apr-25 23:30N 53°04' E 003°21'124 8.0
2018-Apr-25 07:55N 53°32' E 006°44'410.9
2018-Apr-25 07:30N 53°29' E 006°49'5 9.9
2018-Apr-25 07:00N 53°26' E 006°55'4 9.0
2018-Apr-25 06:30N 53°22' E 006°59'3 5.9
2018-Apr-25 06:00N 53°19' E 007°02'4 7.2
2018-Apr-25 05:30N 53°20' E 007°08'2 4.4
2018-Apr-25 05:00N 53°20' E 007°11'0 0.2
2018-Apr-25 04:30N 53°20' E 007°12'1 1.5
2018-Apr-25 03:59N 53°21' E 007°12'0 0.1
2018-Apr-24 22:43N 53°21' E 007°12'0 0.0
2018-Apr-24 22:28N 53°21' E 007°12'0 0.0
2018-Apr-24 21:40N 53°21' E 007°12'0 0.0
2018-Apr-24 21:22N 53°21' E 007°12'0 0.0
2018-Apr-24 19:16N 53°21' E 007°12'0 0.0
2018-Apr-24 18:52N 53°21' E 007°12'0 0.0
2018-Apr-24 18:13N 53°21' E 007°12'0 0.0
2018-Apr-24 17:58N 53°21' E 007°12'0 0.0
2018-Apr-24 15:31N 53°21' E 007°12'0 0.0
2018-Apr-24 15:04N 53°21' E 007°12'0 0.0
2018-Apr-24 14:58N 53°21' E 007°12'0 0.0
2018-Apr-24 14:16N 53°21' E 007°12'0 0.0
2018-Apr-24 13:40N 53°21' E 007°12'0 0.0
2018-Apr-24 12:52N 53°21' E 007°12'0 0.0
2018-Apr-24 12:25N 53°21' E 007°12'0 0.0
2018-Apr-24 11:52N 53°21' E 007°12'0 0.0
2018-Apr-24 11:25N 53°21' E 007°12'0 0.0
2018-Apr-24 10:46N 53°21' E 007°12'0 0.0
2018-Apr-24 10:25N 53°21' E 007°12'0 0.0
2018-Apr-24 09:58N 53°21' E 007°12'0 0.0
2018-Apr-24 09:25N 53°21' E 007°12'0 0.0
2018-Apr-24 08:58N 53°21' E 007°12'0 0.0
2018-Apr-24 08:25N 53°21' E 007°12'0 0.0
2018-Apr-24 07:58N 53°21' E 007°12'0 0.0
2018-Apr-24 07:13N 53°21' E 007°12'0 0.0
2018-Apr-24 06:43N 53°21' E 007°12'0 0.0
2018-Apr-24 06:28N 53°21' E 007°12'0 0.0
2018-Apr-24 05:55N 53°21' E 007°12'0 0.0
2018-Apr-24 04:58N 53°21' E 007°12'0 0.0
2018-Apr-24 04:16N 53°21' E 007°12'0 0.0
2018-Apr-24 03:55N 53°21' E 007°12'0 0.0
2018-Apr-24 03:28N 53°21' E 007°12'0 0.0
2018-Apr-24 02:43N 53°21' E 007°12'0 0.0
2018-Apr-24 02:25N 53°21' E 007°12'0 0.0
2018-Apr-24 01:58N 53°21' E 007°12'0 0.0
2018-Apr-24 01:25N 53°21' E 007°12'0 0.0
2018-Apr-24 00:58N 53°21' E 007°12'0 0.0
2018-Apr-24 00:25N 53°21' E 007°12'0 0.0
2018-Apr-23 23:58N 53°21' E 007°12'0 0.0
2018-Apr-23 23:25N 53°21' E 007°12'0 0.0
2018-Apr-23 22:49N 53°21' E 007°12'0 0.0
2018-Apr-23 22:25N 53°21' E 007°12'0 0.0
2018-Apr-23 21:55N 53°21' E 007°12'0 0.0
2018-Apr-23 21:25N 53°21' E 007°12'0 0.8
2018-Apr-23 20:58N 53°21' E 007°12'1 1.4
2018-Apr-23 20:22N 53°20' E 007°11'1 1.5
2018-Apr-23 20:00N 53°20' E 007°10'3 6.0
2018-Apr-23 19:30N 53°20' E 007°05'4 8.1
2018-Apr-23 19:00N 53°21' E 006°59'510.1
2018-Apr-23 18:30N 53°26' E 006°55'510.4
2018-Apr-23 18:00N 53°29' E 006°49'610.8
2018-Apr-23 17:29N 53°33' E 006°42'511.2
2018-Apr-23 17:00N 53°36' E 006°34'711.8
2018-Apr-23 16:27N 53°37' E 006°24'3 0.3
2018-Apr-23 07:55N 53°36' E 006°19'0 0.2
2018-Apr-23 07:28N 53°36' E 006°19'0 0.1
2018-Apr-23 06:58N 53°36' E 006°19'0 0.0
2018-Apr-23 05:52N 53°36' E 006°19'0 0.0
2018-Apr-22 21:34N 53°36' E 006°19'0 0.2
2018-Apr-22 21:28N 53°36' E 006°19'0 0.1
2018-Apr-22 20:52N 53°36' E 006°19'0 0.1
2018-Apr-22 20:28N 53°36' E 006°19'0 0.1
2018-Apr-22 19:58N 53°36' E 006°19'0 0.1
2018-Apr-22 19:28N 53°36' E 006°19'0 0.0
2018-Apr-22 18:58N 53°36' E 006°19'0 0.0
2018-Apr-22 14:07N 53°36' E 006°19'0 0.2
2018-Apr-22 13:55N 53°36' E 006°19'0 0.1
2018-Apr-22 13:22N 53°36' E 006°19'0 0.0
2018-Apr-22 11:38N 53°36' E 006°19'0 0.2
2018-Apr-22 11:28N 53°36' E 006°19'1 2.2
2018-Apr-22 10:58N 53°37' E 006°18'11 9.7
2018-Apr-22 09:50N 53°40' E 006°00'3 7.8
2018-Apr-22 09:26N 53°39' E 005°55'611.4
2018-Apr-22 08:54N 53°38' E 005°45'511.9
2018-Apr-22 08:30N 53°36' E 005°38'611.8
2018-Apr-22 08:00N 53°34' E 005°29'611.5
2018-Apr-22 07:30N 53°33' E 005°19'611.2
2018-Apr-22 07:00N 53°31' E 005°10'510.7
2018-Apr-22 06:30N 53°29' E 005°02'510.6
2018-Apr-22 06:00N 53°27' E 004°54'510.5
2018-Apr-22 05:30N 53°25' E 004°46'510.3
2018-Apr-22 05:00N 53°21' E 004°40'510.6
2018-Apr-22 04:30N 53°16' E 004°36'510.7
2018-Apr-22 04:00N 53°12' E 004°32'510.6
2018-Apr-22 03:30N 53°07' E 004°27'510.7
2018-Apr-22 03:00N 53°02' E 004°23'510.7
2018-Apr-22 02:30N 52°57' E 004°19'510.9
2018-Apr-22 02:00N 52°52' E 004°16'510.5
2018-Apr-22 01:30N 52°48' E 004°12'510.4
2018-Apr-22 01:00N 52°43' E 004°07'510.4
2018-Apr-22 00:30N 52°39' E 004°02'510.0
2018-Apr-22 00:00N 52°35' E 003°57'510.7
2018-Apr-21 23:30N 52°30' E 003°55'511.0
2018-Apr-21 23:00N 52°25' E 003°53'611.1
2018-Apr-21 22:30N 52°19' E 003°52'611.6
2018-Apr-21 22:00N 52°13' E 003°53'611.9
2018-Apr-21 21:30N 52°08' E 003°55'612.2
2018-Apr-21 21:00N 52°02' E 003°58'611.7
2018-Apr-21 20:30N 51°59' E 004°05'5 9.6
2018-Apr-21 20:00N 51°56' E 004°12'0 0.2
2018-Apr-21 19:30N 51°56' E 004°12'0 0.0
2018-Apr-21 19:00N 51°56' E 004°12'0 0.0
2018-Apr-21 18:30N 51°56' E 004°12'0 0.0
2018-Apr-21 17:59N 51°56' E 004°12'0 0.0
2018-Apr-21 17:29N 51°56' E 004°12'0 0.0
2018-Apr-21 16:59N 51°56' E 004°12'0 0.0
2018-Apr-21 16:29N 51°56' E 004°12'0 0.0
2018-Apr-21 15:59N 51°56' E 004°12'0 0.0
2018-Apr-21 15:29N 51°56' E 004°12'0 0.0
2018-Apr-21 14:59N 51°56' E 004°12'0 0.0
2018-Apr-21 14:29N 51°56' E 004°12'0 0.0
2018-Apr-21 13:56N 51°56' E 004°12'0 0.0
2018-Apr-21 13:29N 51°56' E 004°12'0 0.0
2018-Apr-21 12:59N 51°56' E 004°12'0 0.0
2018-Apr-21 12:29N 51°56' E 004°12'0 0.0
2018-Apr-21 11:59N 51°56' E 004°12'0 0.0
2018-Apr-21 11:29N 51°56' E 004°12'0 0.0
2018-Apr-21 10:59N 51°56' E 004°12'0 0.0
2018-Apr-21 10:29N 51°56' E 004°12'0 0.0
2018-Apr-21 09:59N 51°56' E 004°12'0 0.0
2018-Apr-21 09:29N 51°56' E 004°12'0 0.0
2018-Apr-21 08:59N 51°56' E 004°12'0 0.0
2018-Apr-21 08:29N 51°56' E 004°12'0 0.0
2018-Apr-21 07:59N 51°56' E 004°12'0 0.0
2018-Apr-21 07:29N 51°56' E 004°12'0 0.0
2018-Apr-21 06:59N 51°56' E 004°12'0 0.0
2018-Apr-21 06:29N 51°56' E 004°12'0 0.0
2018-Apr-21 05:59N 51°56' E 004°12'0 0.0
2018-Apr-21 05:29N 51°56' E 004°12'0 0.0
2018-Apr-21 04:59N 51°56' E 004°12'0 0.0
2018-Apr-21 04:29N 51°56' E 004°12'0 0.0
2018-Apr-21 03:59N 51°56' E 004°12'0 0.0
2018-Apr-21 03:29N 51°56' E 004°12'0 0.0
2018-Apr-21 02:59N 51°56' E 004°12'0 0.0
2018-Apr-21 02:29N 51°56' E 004°12'0 0.0
2018-Apr-21 01:59N 51°56' E 004°12'0 0.0
2018-Apr-21 01:29N 51°56' E 004°12'0 0.0
2018-Apr-21 00:59N 51°56' E 004°12'0 0.0
2018-Apr-21 00:29N 51°56' E 004°12'0 0.0
2018-Apr-20 23:59N 51°56' E 004°12'0 0.0
2018-Apr-20 23:29N 51°56' E 004°12'0 0.0
2018-Apr-20 22:59N 51°56' E 004°12'0 0.0
2018-Apr-20 22:29N 51°56' E 004°12'0 0.0
2018-Apr-20 21:59N 51°56' E 004°12'0 0.0
2018-Apr-20 21:29N 51°56' E 004°12'0 0.0
2018-Apr-20 20:59N 51°56' E 004°12'0 0.0
2018-Apr-20 20:29N 51°56' E 004°12'0 0.0
2018-Apr-20 19:59N 51°56' E 004°12'0 0.0
2018-Apr-20 19:29N 51°56' E 004°12'0 0.0
2018-Apr-20 18:59N 51°56' E 004°12'0 0.0
2018-Apr-20 18:29N 51°56' E 004°12'0 0.0
2018-Apr-20 17:59N 51°56' E 004°12'0 0.0
2018-Apr-20 17:29N 51°56' E 004°12'0 0.0
2018-Apr-20 16:59N 51°56' E 004°12'0 0.0
2018-Apr-20 16:29N 51°56' E 004°12'0 0.0
2018-Apr-20 15:59N 51°56' E 004°12'0 0.0
2018-Apr-20 15:29N 51°56' E 004°12'0 0.0
2018-Apr-20 14:59N 51°56' E 004°12'0 0.0
2018-Apr-20 14:29N 51°56' E 004°12'0 0.0
2018-Apr-20 13:56N 51°56' E 004°12'0 0.0
2018-Apr-20 13:29N 51°56' E 004°12'0 0.0
2018-Apr-20 12:59N 51°56' E 004°12'0 0.0
2018-Apr-20 12:29N 51°56' E 004°12'0 0.0
2018-Apr-20 11:59N 51°56' E 004°12'0 0.0
2018-Apr-20 11:29N 51°56' E 004°12'0 0.0
2018-Apr-20 10:59N 51°56' E 004°12'0 0.0
2018-Apr-20 10:29N 51°56' E 004°12'0 0.0
2018-Apr-20 09:59N 51°56' E 004°12'0 0.0
2018-Apr-20 09:29N 51°56' E 004°12'0 0.0
2018-Apr-20 08:59N 51°56' E 004°12'0 0.0
2018-Apr-20 08:29N 51°56' E 004°12'0 0.0
2018-Apr-20 07:59N 51°56' E 004°12'0 0.0
2018-Apr-20 07:29N 51°56' E 004°12'0 0.0
2018-Apr-20 06:59N 51°56' E 004°12'0 0.0
2018-Apr-20 06:29N 51°56' E 004°12'0 0.0
2018-Apr-20 05:59N 51°56' E 004°12'0 0.0
2018-Apr-20 05:29N 51°56' E 004°12'0 0.0
2018-Apr-20 04:59N 51°56' E 004°12'0 0.0
2018-Apr-20 04:29N 51°56' E 004°12'0 0.0
2018-Apr-20 03:59N 51°56' E 004°12'0 0.0
2018-Apr-20 03:29N 51°56' E 004°12'0 0.0
2018-Apr-20 02:59N 51°56' E 004°12'0 0.0
2018-Apr-20 02:29N 51°56' E 004°12'0 0.0
2018-Apr-20 01:59N 51°56' E 004°12'0 0.0
2018-Apr-20 01:29N 51°56' E 004°12'0 0.0
2018-Apr-20 00:59N 51°56' E 004°12'0 0.0
2018-Apr-20 00:29N 51°56' E 004°12'0 0.0
2018-Apr-19 23:59N 51°56' E 004°12'0 0.0
2018-Apr-19 23:29N 51°56' E 004°12'0 0.0
2018-Apr-19 22:59N 51°56' E 004°12'0 0.0
2018-Apr-19 22:29N 51°56' E 004°12'0 0.0
2018-Apr-19 21:59N 51°56' E 004°12'0 0.0
2018-Apr-19 21:29N 51°56' E 004°12'0 0.0
2018-Apr-19 20:59N 51°56' E 004°12'0 0.0
2018-Apr-19 20:29N 51°56' E 004°12'0 0.0
2018-Apr-19 19:59N 51°56' E 004°12'0 0.0
2018-Apr-19 19:29N 51°56' E 004°12'0 0.0
2018-Apr-19 18:56N 51°56' E 004°12'0 0.0
2018-Apr-19 18:29N 51°56' E 004°12'0 0.0
2018-Apr-19 17:59N 51°56' E 004°12'0 0.0
2018-Apr-19 17:29N 51°56' E 004°12'0 0.0
2018-Apr-19 16:59N 51°56' E 004°12'0 0.0
2018-Apr-19 16:29N 51°56' E 004°12'0 0.0
2018-Apr-19 15:59N 51°56' E 004°12'0 0.0
2018-Apr-19 15:29N 51°56' E 004°12'0 0.0
2018-Apr-19 14:59N 51°56' E 004°12'0 0.0
2018-Apr-19 14:29N 51°56' E 004°12'0 0.0
2018-Apr-19 13:59N 51°56' E 004°12'0 0.0
2018-Apr-19 13:29N 51°56' E 004°12'0 0.0
2018-Apr-19 12:59N 51°56' E 004°12'0 0.0
2018-Apr-19 12:29N 51°56' E 004°12'0 0.0
2018-Apr-19 11:59N 51°56' E 004°12'0 0.0
2018-Apr-19 11:29N 51°56' E 004°12'0 0.0
2018-Apr-19 10:59N 51°56' E 004°12'0 0.0
2018-Apr-19 10:29N 51°56' E 004°12'0 0.0
2018-Apr-19 09:59N 51°56' E 004°12'0 0.0
2018-Apr-19 09:29N 51°56' E 004°12'0 0.0
2018-Apr-19 08:59N 51°56' E 004°12'0 0.0
2018-Apr-19 08:29N 51°56' E 004°12'0 0.0
2018-Apr-19 07:59N 51°56' E 004°12'0 0.0
2018-Apr-19 07:29N 51°56' E 004°12'0 0.0
2018-Apr-19 06:59N 51°56' E 004°12'0 0.0
2018-Apr-19 06:29N 51°56' E 004°12'0 0.0
2018-Apr-19 05:59N 51°56' E 004°12'0 0.0
2018-Apr-19 05:29N 51°56' E 004°12'0 0.0
2018-Apr-19 04:59N 51°56' E 004°12'0 0.0
2018-Apr-19 04:29N 51°56' E 004°12'0 0.0
2018-Apr-19 03:59N 51°56' E 004°12'0 0.0
2018-Apr-19 03:29N 51°56' E 004°12'0 0.0
2018-Apr-19 02:59N 51°56' E 004°12'0 0.0
2018-Apr-19 02:29N 51°56' E 004°12'0 0.0
2018-Apr-19 01:59N 51°56' E 004°12'0 0.0
2018-Apr-19 01:29N 51°56' E 004°12'0 0.0
2018-Apr-19 00:59N 51°56' E 004°12'0 0.0
2018-Apr-19 00:29N 51°56' E 004°12'0 0.0
2018-Apr-18 23:59N 51°56' E 004°12'0 0.0
2018-Apr-18 23:29N 51°56' E 004°12'0 0.0
2018-Apr-18 22:59N 51°56' E 004°12'0 0.0
2018-Apr-18 22:29N 51°56' E 004°12'0 0.0
2018-Apr-18 21:59N 51°56' E 004°12'0 0.0
2018-Apr-18 21:29N 51°56' E 004°12'0 0.0
2018-Apr-18 20:59N 51°56' E 004°12'0 0.0
2018-Apr-18 20:29N 51°56' E 004°12'0 0.0
2018-Apr-18 19:59N 51°56' E 004°12'0 0.0
2018-Apr-18 19:29N 51°56' E 004°12'0 0.0
2018-Apr-18 18:59N 51°56' E 004°12'0 0.0
2018-Apr-18 18:29N 51°56' E 004°12'0 0.0
2018-Apr-18 17:59N 51°56' E 004°12'0 0.0
2018-Apr-18 17:29N 51°56' E 004°12'0 0.0
2018-Apr-18 16:59N 51°56' E 004°12'0 0.0
2018-Apr-18 16:29N 51°56' E 004°12'0 0.0
2018-Apr-18 15:59N 51°56' E 004°12'0 0.0
2018-Apr-18 15:29N 51°56' E 004°12'0 0.0
2018-Apr-18 14:59N 51°56' E 004°12'0 0.0
2018-Apr-18 14:29N 51°56' E 004°12'0 0.0
2018-Apr-18 13:59N 51°56' E 004°12'0 0.0
2018-Apr-18 13:29N 51°56' E 004°12'0 0.0
2018-Apr-18 12:59N 51°56' E 004°12'0 0.0
2018-Apr-18 12:29N 51°56' E 004°12'0 0.0
2018-Apr-18 11:59N 51°56' E 004°12'0 0.0
2018-Apr-18 11:29N 51°56' E 004°12'0 0.0
2018-Apr-18 10:59N 51°56' E 004°12'0 0.0
2018-Apr-18 10:29N 51°56' E 004°12'0 0.0
2018-Apr-18 09:59N 51°56' E 004°12'0 0.0
2018-Apr-18 09:29N 51°56' E 004°12'0 0.0
2018-Apr-18 08:59N 51°56' E 004°12'0 0.0
2018-Apr-18 08:29N 51°56' E 004°12'0 0.0
2018-Apr-18 07:59N 51°56' E 004°12'0 0.0
2018-Apr-18 07:29N 51°56' E 004°12'0 0.0
2018-Apr-18 06:59N 51°56' E 004°12'0 0.0
2018-Apr-18 06:29N 51°56' E 004°12'0 0.0
2018-Apr-18 05:59N 51°56' E 004°12'0 0.0
2018-Apr-18 05:29N 51°56' E 004°12'0 0.0
2018-Apr-18 04:59N 51°56' E 004°12'0 0.0
2018-Apr-18 04:29N 51°56' E 004°12'0 0.0
2018-Apr-18 03:59N 51°56' E 004°12'0 0.0
2018-Apr-18 03:29N 51°56' E 004°12'0 0.0
2018-Apr-18 02:59N 51°56' E 004°12'0 0.0
2018-Apr-18 02:29N 51°56' E 004°12'0 0.0
2018-Apr-18 01:59N 51°56' E 004°12'0 0.0
2018-Apr-18 01:29N 51°56' E 004°12'0 0.0
2018-Apr-18 00:59N 51°56' E 004°12'0 0.0
2018-Apr-18 00:29N 51°56' E 004°12'0 0.0
2018-Apr-17 23:59N 51°56' E 004°12'0 0.0
2018-Apr-17 23:29N 51°56' E 004°12'0 0.0
2018-Apr-17 22:59N 51°56' E 004°12'0 0.0
2018-Apr-17 22:29N 51°56' E 004°12'0 0.0
2018-Apr-17 21:59N 51°56' E 004°12'0 0.0
2018-Apr-17 21:29N 51°56' E 004°12'0 0.0
2018-Apr-17 20:59N 51°56' E 004°12'0 0.0
2018-Apr-17 20:29N 51°56' E 004°12'0 0.0
2018-Apr-17 19:59N 51°56' E 004°12'0 0.0
2018-Apr-17 19:29N 51°56' E 004°12'0 0.0
2018-Apr-17 18:59N 51°56' E 004°12'0 0.0
2018-Apr-17 18:26N 51°56' E 004°12'0 0.0
2018-Apr-17 17:59N 51°56' E 004°12'0 0.0
2018-Apr-17 17:29N 51°56' E 004°12'0 0.0
2018-Apr-17 16:59N 51°56' E 004°12'0 0.0
2018-Apr-17 16:29N 51°56' E 004°12'0 0.0
2018-Apr-17 15:59N 51°56' E 004°12'0 0.0
2018-Apr-17 15:29N 51°56' E 004°12'0 0.0
2018-Apr-17 14:59N 51°56' E 004°12'0 0.0
2018-Apr-17 14:29N 51°56' E 004°12'0 0.0
2018-Apr-17 13:59N 51°56' E 004°12'0 0.0
2018-Apr-17 13:29N 51°56' E 004°12'0 0.0
2018-Apr-17 12:59N 51°56' E 004°12'0 0.0
2018-Apr-17 12:30N 51°56' E 004°12'0 0.0
2018-Apr-17 12:00N 51°56' E 004°12'0 0.0
2018-Apr-17 11:30N 51°56' E 004°12'0 0.0
2018-Apr-17 11:00N 51°56' E 004°12'  
Track history (hours):
 
Tides and Currents Weather Stations Pressure Air Temp Water Temp Dewpoint Dewpoint Depression Visibility Wind Speed Wind Dir Waves Ship Positions

Oluja

Last reported at 2018-Apr-27 02:39 UTC. Time now 2018-Apr-27 03:02 UTC.
Position N 50°19' W 001°21'.

Length 188 m; draft 8.2 m.

Type: Cargo ship. MMSI: 538003345.

Date/timePositionNaut miles runAvg speedWind from/ knotsBaromVisibWave heightAir tempDewpointWater temp
2018-Apr-27 02:39N 50°19' W 001°21'312.8
2018-Apr-27 02:23N 50°20' W 001°16'513.1
2018-Apr-27 02:00N 50°22' W 001°08'713.5
2018-Apr-27 01:30N 50°24' W 000°58'714.0
2018-Apr-27 01:01N 50°26' W 000°48'713.6
2018-Apr-27 00:30N 50°27' W 000°37'713.8
2018-Apr-27 00:00N 50°28' W 000°27'713.3
2018-Apr-26 23:30N 50°30' W 000°16'612.9
2018-Apr-26 23:00N 50°32' W 000°07'612.6
2018-Apr-26 22:30N 50°33' E 000°03'612.2
2018-Apr-26 22:00N 50°35' E 000°12'611.8
2018-Apr-26 21:30N 50°36' E 000°21'611.3
2018-Apr-26 21:00N 50°38' E 000°30'510.6
2018-Apr-26 20:30N 50°40' E 000°37'510.6
2018-Apr-26 20:00N 50°43' E 000°44'510.4
2018-Apr-26 19:30N 50°46' E 000°50'510.4
2018-Apr-26 19:00N 50°49' E 000°57'510.6
2018-Apr-26 18:30N 50°53' E 001°04'7 7.5
2018-Apr-26 17:31N 50°60' E 001°06'0 2.8
2018-Apr-26 17:31N 50°60' E 001°06'0 0.1
2018-Apr-26 16:28N 50°60' E 001°06'0 0.0
2018-Apr-26 15:52N 50°60' E 001°06'0 0.2
2018-Apr-26 15:30N 50°60' E 001°06'0 0.2
2018-Apr-26 15:00N 50°60' E 001°07'0 0.2
2018-Apr-26 14:25N 50°60' E 001°07'1 3.1
2018-Apr-26 14:00N 51°00' E 001°09'5 9.2
2018-Apr-26 13:29N 51°00' E 001°16'510.0
2018-Apr-26 13:00N 51°02' E 001°23'510.1
2018-Apr-26 12:30N 51°06' E 001°29'5 9.2
2018-Apr-26 12:00N 51°09' E 001°35'4 8.8
2018-Apr-26 11:30N 51°11' E 001°40'4 8.8
2018-Apr-26 11:00N 51°14' E 001°45'4 9.0
2018-Apr-26 10:30N 51°18' E 001°49'5 9.0
2018-Apr-26 10:00N 51°22' E 001°52'5 9.4
2018-Apr-26 09:30N 51°26' E 001°56'5 9.6
2018-Apr-26 09:00N 51°30' E 002°01'5 9.9
2018-Apr-26 08:30N 51°33' E 002°07'510.4
2018-Apr-26 08:00N 51°37' E 002°12'510.6
2018-Apr-26 07:31N 51°41' E 002°18'611.2
2018-Apr-26 07:00N 51°45' E 002°24'8011.6
2018-Apr-26 00:06N 52°58' E 003°17'210.4
2018-Apr-25 23:53N 53°00' E 003°18'410.5
2018-Apr-25 23:30N 53°04' E 003°21'124 8.0
2018-Apr-25 07:55N 53°32' E 006°44'410.9
2018-Apr-25 07:30N 53°29' E 006°49'5 9.9
2018-Apr-25 07:00N 53°26' E 006°55'4 9.0
2018-Apr-25 06:30N 53°22' E 006°59'3 5.9
2018-Apr-25 06:00N 53°19' E 007°02'4 7.2
2018-Apr-25 05:30N 53°20' E 007°08'2 4.4
2018-Apr-25 05:00N 53°20' E 007°11'0 0.2
2018-Apr-25 04:30N 53°20' E 007°12'1 1.5
2018-Apr-25 03:59N 53°21' E 007°12'0 0.1
2018-Apr-24 22:43N 53°21' E 007°12'0 0.0
2018-Apr-24 22:28N 53°21' E 007°12'0 0.0
2018-Apr-24 21:40N 53°21' E 007°12'0 0.0
2018-Apr-24 21:22N 53°21' E 007°12'0 0.0
2018-Apr-24 19:16N 53°21' E 007°12'0 0.0
2018-Apr-24 18:52N 53°21' E 007°12'0 0.0
2018-Apr-24 18:13N 53°21' E 007°12'0 0.0
2018-Apr-24 17:58N 53°21' E 007°12'0 0.0
2018-Apr-24 15:31N 53°21' E 007°12'0 0.0
2018-Apr-24 15:04N 53°21' E 007°12'0 0.0
2018-Apr-24 14:58N 53°21' E 007°12'0 0.0
2018-Apr-24 14:16N 53°21' E 007°12'0 0.0
2018-Apr-24 13:40N 53°21' E 007°12'0 0.0
2018-Apr-24 12:52N 53°21' E 007°12'0 0.0
2018-Apr-24 12:25N 53°21' E 007°12'0 0.0
2018-Apr-24 11:52N 53°21' E 007°12'0 0.0
2018-Apr-24 11:25N 53°21' E 007°12'0 0.0
2018-Apr-24 10:46N 53°21' E 007°12'0 0.0
2018-Apr-24 10:25N 53°21' E 007°12'0 0.0
2018-Apr-24 09:58N 53°21' E 007°12'0 0.0
2018-Apr-24 09:25N 53°21' E 007°12'0 0.0
2018-Apr-24 08:58N 53°21' E 007°12'0 0.0
2018-Apr-24 08:25N 53°21' E 007°12'0 0.0
2018-Apr-24 07:58N 53°21' E 007°12'0 0.0
2018-Apr-24 07:13N 53°21' E 007°12'0 0.0
2018-Apr-24 06:43N 53°21' E 007°12'0 0.0
2018-Apr-24 06:28N 53°21' E 007°12'0 0.0
2018-Apr-24 05:55N 53°21' E 007°12'0 0.0
2018-Apr-24 04:58N 53°21' E 007°12'0 0.0
2018-Apr-24 04:16N 53°21' E 007°12'0 0.0
2018-Apr-24 03:55N 53°21' E 007°12'0 0.0
2018-Apr-24 03:28N 53°21' E 007°12'0 0.0
2018-Apr-24 02:43N 53°21' E 007°12'0 0.0
2018-Apr-24 02:25N 53°21' E 007°12'0 0.0
2018-Apr-24 01:58N 53°21' E 007°12'0 0.0
2018-Apr-24 01:25N 53°21' E 007°12'0 0.0
2018-Apr-24 00:58N 53°21' E 007°12'0 0.0
2018-Apr-24 00:25N 53°21' E 007°12'0 0.0
2018-Apr-23 23:58N 53°21' E 007°12'0 0.0
2018-Apr-23 23:25N 53°21' E 007°12'0 0.0
2018-Apr-23 22:49N 53°21' E 007°12'0 0.0
2018-Apr-23 22:25N 53°21' E 007°12'0 0.0
2018-Apr-23 21:55N 53°21' E 007°12'0 0.0
2018-Apr-23 21:25N 53°21' E 007°12'0 0.8
2018-Apr-23 20:58N 53°21' E 007°12'1 1.4
2018-Apr-23 20:22N 53°20' E 007°11'1 1.5
2018-Apr-23 20:00N 53°20' E 007°10'3 6.0
2018-Apr-23 19:30N 53°20' E 007°05'4 8.1
2018-Apr-23 19:00N 53°21' E 006°59'510.1
2018-Apr-23 18:30N 53°26' E 006°55'510.4
2018-Apr-23 18:00N 53°29' E 006°49'610.8
2018-Apr-23 17:29N 53°33' E 006°42'511.2
2018-Apr-23 17:00N 53°36' E 006°34'711.8
2018-Apr-23 16:27N 53°37' E 006°24'3 0.3
2018-Apr-23 07:55N 53°36' E 006°19'0 0.2
2018-Apr-23 07:28N 53°36' E 006°19'0 0.1
2018-Apr-23 06:58N 53°36' E 006°19'0 0.0
2018-Apr-23 05:52N 53°36' E 006°19'0 0.0
2018-Apr-22 21:34N 53°36' E 006°19'0 0.2
2018-Apr-22 21:28N 53°36' E 006°19'0 0.1
2018-Apr-22 20:52N 53°36' E 006°19'0 0.1
2018-Apr-22 20:28N 53°36' E 006°19'0 0.1
2018-Apr-22 19:58N 53°36' E 006°19'0 0.1
2018-Apr-22 19:28N 53°36' E 006°19'0 0.0
2018-Apr-22 18:58N 53°36' E 006°19'0 0.0
2018-Apr-22 14:07N 53°36' E 006°19'0 0.2
2018-Apr-22 13:55N 53°36' E 006°19'0 0.1
2018-Apr-22 13:22N 53°36' E 006°19'0 0.0
2018-Apr-22 11:38N 53°36' E 006°19'0 0.2
2018-Apr-22 11:28N 53°36' E 006°19'1 2.2
2018-Apr-22 10:58N 53°37' E 006°18'11 9.7
2018-Apr-22 09:50N 53°40' E 006°00'3 7.8
2018-Apr-22 09:26N 53°39' E 005°55'611.4
2018-Apr-22 08:54N 53°38' E 005°45'511.9
2018-Apr-22 08:30N 53°36' E 005°38'611.8
2018-Apr-22 08:00N 53°34' E 005°29'611.5
2018-Apr-22 07:30N 53°33' E 005°19'611.2
2018-Apr-22 07:00N 53°31' E 005°10'510.7
2018-Apr-22 06:30N 53°29' E 005°02'510.6
2018-Apr-22 06:00N 53°27' E 004°54'510.5
2018-Apr-22 05:30N 53°25' E 004°46'510.3
2018-Apr-22 05:00N 53°21' E 004°40'510.6
2018-Apr-22 04:30N 53°16' E 004°36'510.7
2018-Apr-22 04:00N 53°12' E 004°32'510.6
2018-Apr-22 03:30N 53°07' E 004°27'510.7
2018-Apr-22 03:00N 53°02' E 004°23'510.7
2018-Apr-22 02:30N 52°57' E 004°19'510.9
2018-Apr-22 02:00N 52°52' E 004°16'510.5
2018-Apr-22 01:30N 52°48' E 004°12'510.4
2018-Apr-22 01:00N 52°43' E 004°07'510.4
2018-Apr-22 00:30N 52°39' E 004°02'510.0
2018-Apr-22 00:00N 52°35' E 003°57'510.7
2018-Apr-21 23:30N 52°30' E 003°55'511.0
2018-Apr-21 23:00N 52°25' E 003°53'611.1
2018-Apr-21 22:30N 52°19' E 003°52'611.6
2018-Apr-21 22:00N 52°13' E 003°53'611.9
2018-Apr-21 21:30N 52°08' E 003°55'612.2
2018-Apr-21 21:00N 52°02' E 003°58'611.7
2018-Apr-21 20:30N 51°59' E 004°05'5 9.6
2018-Apr-21 20:00N 51°56' E 004°12'0 0.2
2018-Apr-21 19:30N 51°56' E 004°12'0 0.0
2018-Apr-21 19:00N 51°56' E 004°12'0 0.0
2018-Apr-21 18:30N 51°56' E 004°12'0 0.0
2018-Apr-21 17:59N 51°56' E 004°12'0 0.0
2018-Apr-21 17:29N 51°56' E 004°12'0 0.0
2018-Apr-21 16:59N 51°56' E 004°12'0 0.0
2018-Apr-21 16:29N 51°56' E 004°12'0 0.0
2018-Apr-21 15:59N 51°56' E 004°12'0 0.0
2018-Apr-21 15:29N 51°56' E 004°12'0 0.0
2018-Apr-21 14:59N 51°56' E 004°12'0 0.0
2018-Apr-21 14:29N 51°56' E 004°12'0 0.0
2018-Apr-21 13:56N 51°56' E 004°12'0 0.0
2018-Apr-21 13:29N 51°56' E 004°12'0 0.0
2018-Apr-21 12:59N 51°56' E 004°12'0 0.0
2018-Apr-21 12:29N 51°56' E 004°12'0 0.0
2018-Apr-21 11:59N 51°56' E 004°12'0 0.0
2018-Apr-21 11:29N 51°56' E 004°12'0 0.0
2018-Apr-21 10:59N 51°56' E 004°12'0 0.0
2018-Apr-21 10:29N 51°56' E 004°12'0 0.0
2018-Apr-21 09:59N 51°56' E 004°12'0 0.0
2018-Apr-21 09:29N 51°56' E 004°12'0 0.0
2018-Apr-21 08:59N 51°56' E 004°12'0 0.0
2018-Apr-21 08:29N 51°56' E 004°12'0 0.0
2018-Apr-21 07:59N 51°56' E 004°12'0 0.0
2018-Apr-21 07:29N 51°56' E 004°12'0 0.0
2018-Apr-21 06:59N 51°56' E 004°12'0 0.0
2018-Apr-21 06:29N 51°56' E 004°12'0 0.0
2018-Apr-21 05:59N 51°56' E 004°12'0 0.0
2018-Apr-21 05:29N 51°56' E 004°12'0 0.0
2018-Apr-21 04:59N 51°56' E 004°12'0 0.0
2018-Apr-21 04:29N 51°56' E 004°12'0 0.0
2018-Apr-21 03:59N 51°56' E 004°12'0 0.0
2018-Apr-21 03:29N 51°56' E 004°12'0 0.0
2018-Apr-21 02:59N 51°56' E 004°12'0 0.0
2018-Apr-21 02:29N 51°56' E 004°12'0 0.0
2018-Apr-21 01:59N 51°56' E 004°12'0 0.0
2018-Apr-21 01:29N 51°56' E 004°12'0 0.0
2018-Apr-21 00:59N 51°56' E 004°12'0 0.0
2018-Apr-21 00:29N 51°56' E 004°12'0 0.0
2018-Apr-20 23:59N 51°56' E 004°12'0 0.0
2018-Apr-20 23:29N 51°56' E 004°12'0 0.0
2018-Apr-20 22:59N 51°56' E 004°12'0 0.0
2018-Apr-20 22:29N 51°56' E 004°12'0 0.0
2018-Apr-20 21:59N 51°56' E 004°12'0 0.0
2018-Apr-20 21:29N 51°56' E 004°12'0 0.0
2018-Apr-20 20:59N 51°56' E 004°12'0 0.0
2018-Apr-20 20:29N 51°56' E 004°12'0 0.0
2018-Apr-20 19:59N 51°56' E 004°12'0 0.0
2018-Apr-20 19:29N 51°56' E 004°12'0 0.0
2018-Apr-20 18:59N 51°56' E 004°12'0 0.0
2018-Apr-20 18:29N 51°56' E 004°12'0 0.0
2018-Apr-20 17:59N 51°56' E 004°12'0 0.0
2018-Apr-20 17:29N 51°56' E 004°12'0 0.0
2018-Apr-20 16:59N 51°56' E 004°12'0 0.0
2018-Apr-20 16:29N 51°56' E 004°12'0 0.0
2018-Apr-20 15:59N 51°56' E 004°12'0 0.0
2018-Apr-20 15:29N 51°56' E 004°12'0 0.0
2018-Apr-20 14:59N 51°56' E 004°12'0 0.0
2018-Apr-20 14:29N 51°56' E 004°12'0 0.0
2018-Apr-20 13:56N 51°56' E 004°12'0 0.0
2018-Apr-20 13:29N 51°56' E 004°12'0 0.0
2018-Apr-20 12:59N 51°56' E 004°12'0 0.0
2018-Apr-20 12:29N 51°56' E 004°12'0 0.0
2018-Apr-20 11:59N 51°56' E 004°12'0 0.0
2018-Apr-20 11:29N 51°56' E 004°12'0 0.0
2018-Apr-20 10:59N 51°56' E 004°12'0 0.0
2018-Apr-20 10:29N 51°56' E 004°12'0 0.0
2018-Apr-20 09:59N 51°56' E 004°12'0 0.0
2018-Apr-20 09:29N 51°56' E 004°12'0 0.0
2018-Apr-20 08:59N 51°56' E 004°12'0 0.0
2018-Apr-20 08:29N 51°56' E 004°12'0 0.0
2018-Apr-20 07:59N 51°56' E 004°12'0 0.0
2018-Apr-20 07:29N 51°56' E 004°12'0 0.0
2018-Apr-20 06:59N 51°56' E 004°12'0 0.0
2018-Apr-20 06:29N 51°56' E 004°12'0 0.0
2018-Apr-20 05:59N 51°56' E 004°12'0 0.0
2018-Apr-20 05:29N 51°56' E 004°12'0 0.0
2018-Apr-20 04:59N 51°56' E 004°12'0 0.0
2018-Apr-20 04:29N 51°56' E 004°12'0 0.0
2018-Apr-20 03:59N 51°56' E 004°12'0 0.0
2018-Apr-20 03:29N 51°56' E 004°12'0 0.0
2018-Apr-20 02:59N 51°56' E 004°12'0 0.0
2018-Apr-20 02:29N 51°56' E 004°12'0 0.0
2018-Apr-20 01:59N 51°56' E 004°12'0 0.0
2018-Apr-20 01:29N 51°56' E 004°12'0 0.0
2018-Apr-20 00:59N 51°56' E 004°12'0 0.0
2018-Apr-20 00:29N 51°56' E 004°12'0 0.0
2018-Apr-19 23:59N 51°56' E 004°12'0 0.0
2018-Apr-19 23:29N 51°56' E 004°12'0 0.0
2018-Apr-19 22:59N 51°56' E 004°12'0 0.0
2018-Apr-19 22:29N 51°56' E 004°12'0 0.0
2018-Apr-19 21:59N 51°56' E 004°12'0 0.0
2018-Apr-19 21:29N 51°56' E 004°12'0 0.0
2018-Apr-19 20:59N 51°56' E 004°12'0 0.0
2018-Apr-19 20:29N 51°56' E 004°12'0 0.0
2018-Apr-19 19:59N 51°56' E 004°12'0 0.0
2018-Apr-19 19:29N 51°56' E 004°12'0 0.0
2018-Apr-19 18:56N 51°56' E 004°12'0 0.0
2018-Apr-19 18:29N 51°56' E 004°12'0 0.0
2018-Apr-19 17:59N 51°56' E 004°12'0 0.0
2018-Apr-19 17:29N 51°56' E 004°12'0 0.0
2018-Apr-19 16:59N 51°56' E 004°12'0 0.0
2018-Apr-19 16:29N 51°56' E 004°12'0 0.0
2018-Apr-19 15:59N 51°56' E 004°12'0 0.0
2018-Apr-19 15:29N 51°56' E 004°12'0 0.0
2018-Apr-19 14:59N 51°56' E 004°12'0 0.0
2018-Apr-19 14:29N 51°56' E 004°12'0 0.0
2018-Apr-19 13:59N 51°56' E 004°12'0 0.0
2018-Apr-19 13:29N 51°56' E 004°12'0 0.0
2018-Apr-19 12:59N 51°56' E 004°12'0 0.0
2018-Apr-19 12:29N 51°56' E 004°12'0 0.0
2018-Apr-19 11:59N 51°56' E 004°12'0 0.0
2018-Apr-19 11:29N 51°56' E 004°12'0 0.0
2018-Apr-19 10:59N 51°56' E 004°12'0 0.0
2018-Apr-19 10:29N 51°56' E 004°12'0 0.0
2018-Apr-19 09:59N 51°56' E 004°12'0 0.0
2018-Apr-19 09:29N 51°56' E 004°12'0 0.0
2018-Apr-19 08:59N 51°56' E 004°12'0 0.0
2018-Apr-19 08:29N 51°56' E 004°12'0 0.0
2018-Apr-19 07:59N 51°56' E 004°12'0 0.0
2018-Apr-19 07:29N 51°56' E 004°12'0 0.0
2018-Apr-19 06:59N 51°56' E 004°12'0 0.0
2018-Apr-19 06:29N 51°56' E 004°12'0 0.0
2018-Apr-19 05:59N 51°56' E 004°12'0 0.0
2018-Apr-19 05:29N 51°56' E 004°12'0 0.0
2018-Apr-19 04:59N 51°56' E 004°12'0 0.0
2018-Apr-19 04:29N 51°56' E 004°12'0 0.0
2018-Apr-19 03:59N 51°56' E 004°12'0 0.0
2018-Apr-19 03:29N 51°56' E 004°12'0 0.0
2018-Apr-19 02:59N 51°56' E 004°12'0 0.0
2018-Apr-19 02:29N 51°56' E 004°12'0 0.0
2018-Apr-19 01:59N 51°56' E 004°12'0 0.0
2018-Apr-19 01:29N 51°56' E 004°12'0 0.0
2018-Apr-19 00:59N 51°56' E 004°12'0 0.0
2018-Apr-19 00:29N 51°56' E 004°12'0 0.0
2018-Apr-18 23:59N 51°56' E 004°12'0 0.0
2018-Apr-18 23:29N 51°56' E 004°12'0 0.0
2018-Apr-18 22:59N 51°56' E 004°12'0 0.0
2018-Apr-18 22:29N 51°56' E 004°12'0 0.0
2018-Apr-18 21:59N 51°56' E 004°12'0 0.0
2018-Apr-18 21:29N 51°56' E 004°12'0 0.0
2018-Apr-18 20:59N 51°56' E 004°12'0 0.0
2018-Apr-18 20:29N 51°56' E 004°12'0 0.0
2018-Apr-18 19:59N 51°56' E 004°12'0 0.0
2018-Apr-18 19:29N 51°56' E 004°12'0 0.0
2018-Apr-18 18:59N 51°56' E 004°12'0 0.0
2018-Apr-18 18:29N 51°56' E 004°12'0 0.0
2018-Apr-18 17:59N 51°56' E 004°12'0 0.0
2018-Apr-18 17:29N 51°56' E 004°12'0 0.0
2018-Apr-18 16:59N 51°56' E 004°12'0 0.0
2018-Apr-18 16:29N 51°56' E 004°12'0 0.0
2018-Apr-18 15:59N 51°56' E 004°12'0 0.0
2018-Apr-18 15:29N 51°56' E 004°12'0 0.0
2018-Apr-18 14:59N 51°56' E 004°12'0 0.0
2018-Apr-18 14:29N 51°56' E 004°12'0 0.0
2018-Apr-18 13:59N 51°56' E 004°12'0 0.0
2018-Apr-18 13:29N 51°56' E 004°12'0 0.0
2018-Apr-18 12:59N 51°56' E 004°12'0 0.0
2018-Apr-18 12:29N 51°56' E 004°12'0 0.0
2018-Apr-18 11:59N 51°56' E 004°12'0 0.0
2018-Apr-18 11:29N 51°56' E 004°12'0 0.0
2018-Apr-18 10:59N 51°56' E 004°12'0 0.0
2018-Apr-18 10:29N 51°56' E 004°12'0 0.0
2018-Apr-18 09:59N 51°56' E 004°12'0 0.0
2018-Apr-18 09:29N 51°56' E 004°12'0 0.0
2018-Apr-18 08:59N 51°56' E 004°12'0 0.0
2018-Apr-18 08:29N 51°56' E 004°12'0 0.0
2018-Apr-18 07:59N 51°56' E 004°12'0 0.0
2018-Apr-18 07:29N 51°56' E 004°12'0 0.0
2018-Apr-18 06:59N 51°56' E 004°12'0 0.0
2018-Apr-18 06:29N 51°56' E 004°12'0 0.0
2018-Apr-18 05:59N 51°56' E 004°12'0 0.0
2018-Apr-18 05:29N 51°56' E 004°12'0 0.0
2018-Apr-18 04:59N 51°56' E 004°12'0 0.0
2018-Apr-18 04:29N 51°56' E 004°12'0 0.0
2018-Apr-18 03:59N 51°56' E 004°12'0 0.0
2018-Apr-18 03:29N 51°56' E 004°12'0 0.0
2018-Apr-18 02:59N 51°56' E 004°12'0 0.0
2018-Apr-18 02:29N 51°56' E 004°12'0 0.0
2018-Apr-18 01:59N 51°56' E 004°12'0 0.0
2018-Apr-18 01:29N 51°56' E 004°12'0 0.0
2018-Apr-18 00:59N 51°56' E 004°12'0 0.0
2018-Apr-18 00:29N 51°56' E 004°12'0 0.0
2018-Apr-17 23:59N 51°56' E 004°12'0 0.0
2018-Apr-17 23:29N 51°56' E 004°12'0 0.0
2018-Apr-17 22:59N 51°56' E 004°12'0 0.0
2018-Apr-17 22:29N 51°56' E 004°12'0 0.0
2018-Apr-17 21:59N 51°56' E 004°12'0 0.0
2018-Apr-17 21:29N 51°56' E 004°12'0 0.0
2018-Apr-17 20:59N 51°56' E 004°12'0 0.0
2018-Apr-17 20:29N 51°56' E 004°12'0 0.0
2018-Apr-17 19:59N 51°56' E 004°12'0 0.0
2018-Apr-17 19:29N 51°56' E 004°12'0 0.0
2018-Apr-17 18:59N 51°56' E 004°12'0 0.0
2018-Apr-17 18:26N 51°56' E 004°12'0 0.0
2018-Apr-17 17:59N 51°56' E 004°12'0 0.0
2018-Apr-17 17:29N 51°56' E 004°12'0 0.0
2018-Apr-17 16:59N 51°56' E 004°12'0 0.0
2018-Apr-17 16:29N 51°56' E 004°12'0 0.0
2018-Apr-17 15:59N 51°56' E 004°12'0 0.0
2018-Apr-17 15:29N 51°56' E 004°12'0 0.0
2018-Apr-17 14:59N 51°56' E 004°12'0 0.0
2018-Apr-17 14:29N 51°56' E 004°12'0 0.0
2018-Apr-17 13:59N 51°56' E 004°12'0 0.0
2018-Apr-17 13:29N 51°56' E 004°12'0 0.0
2018-Apr-17 12:59N 51°56' E 004°12'0 0.0
2018-Apr-17 12:30N 51°56' E 004°12'0 0.0
2018-Apr-17 12:00N 51°56' E 004°12'0 0.0
2018-Apr-17 11:30N 51°56' E 004°12'0 0.0
2018-Apr-17 11:00N 51°56' E 004°12'  

Dump ship's entire track history